createdAt,value
2022-08-07T00:00:29.294Z,65.34
2022-08-07T00:03:14.034Z,65.44
2022-08-07T00:05:46.400Z,65.63
2022-08-07T00:08:18.314Z,65.87
2022-08-07T00:10:57.399Z,66.39
2022-08-07T00:13:30.293Z,66.99
2022-08-07T00:16:02.725Z,67.13
2022-08-07T00:18:34.891Z,67.37
2022-08-07T00:21:55.460Z,67.62
2022-08-07T00:24:02.254Z,67.95
2022-08-07T00:26:59.435Z,67.47
2022-08-07T00:29:32.144Z,67.87
2022-08-07T00:32:04.219Z,67.70
2022-08-07T00:34:37.956Z,67.86
2022-08-07T00:37:11.034Z,67.82
2022-08-07T00:39:45.013Z,67.73
2022-08-07T00:42:17.446Z,67.84
2022-08-07T00:44:49.562Z,68.07
2022-08-07T00:48:07.793Z,68.71
2022-08-07T00:50:19.337Z,69.02
2022-08-07T00:52:53.691Z,69.49
2022-08-07T00:56:02.447Z,69.96
2022-08-07T00:58:23.341Z,71.11
2022-08-07T01:00:56.399Z,70.94
2022-08-07T01:03:57.163Z,71.00
2022-08-07T01:06:21.933Z,70.99
2022-08-07T01:08:56.362Z,71.61
2022-08-07T01:12:27.376Z,71.59
2022-08-07T01:14:28.577Z,71.79
2022-08-07T01:17:04.217Z,71.60
2022-08-07T01:19:39.857Z,72.19
2022-08-07T01:22:22.583Z,72.40
2022-08-07T01:25:02.426Z,72.09
2022-08-07T01:27:56.227Z,72.01
2022-08-07T01:30:30.978Z,71.99
2022-08-07T01:33:03.262Z,72.46
2022-08-07T01:35:52.677Z,72.71
2022-08-07T01:38:29.236Z,72.16
2022-08-07T01:41:08.038Z,72.21
2022-08-07T01:43:43.295Z,72.06
2022-08-07T01:46:16.046Z,72.20
2022-08-07T01:48:53.374Z,72.57
2022-08-07T01:52:03.732Z,72.43
2022-08-07T01:54:33.128Z,72.90
2022-08-07T01:57:30.909Z,73.58
2022-08-07T02:00:13.695Z,73.94
2022-08-07T02:03:18.356Z,74.03
2022-08-07T02:05:59.681Z,73.84
2022-08-07T02:08:41.676Z,73.94
2022-08-07T02:11:57.745Z,74.09
2022-08-07T02:14:08.863Z,74.31
2022-08-07T02:16:43.778Z,74.34
2022-08-07T02:20:05.479Z,74.55
2022-08-07T02:22:12.575Z,74.68
2022-08-07T02:24:48.612Z,74.64
2022-08-07T02:27:23.986Z,74.24
2022-08-07T02:30:00.210Z,73.92
2022-08-07T02:33:00.146Z,73.94
2022-08-07T02:36:28.341Z,73.82
2022-08-07T02:38:31.938Z,73.63
2022-08-07T02:41:07.995Z,73.28
2022-08-07T02:43:48.883Z,73.58
2022-08-07T02:46:24.618Z,73.62
2022-08-07T02:48:59.282Z,73.71
2022-08-07T02:51:42.651Z,74.25
2022-08-07T02:54:25.152Z,74.34
2022-08-07T02:57:01.495Z,74.62
2022-08-07T02:59:34.748Z,74.36
2022-08-07T03:02:10.833Z,74.27
2022-08-07T03:04:46.408Z,74.32
2022-08-07T03:07:42.945Z,74.26
2022-08-07T03:10:18.119Z,74.05
2022-08-07T03:12:56.500Z,73.97
2022-08-07T03:15:47.947Z,73.98
2022-08-07T03:18:24.460Z,73.67
2022-08-07T03:21:08.926Z,73.51
2022-08-07T03:24:17.909Z,73.51
2022-08-07T03:26:42.835Z,73.68
2022-08-07T03:29:23.261Z,73.80
2022-08-07T03:32:01.646Z,73.57
2022-08-07T03:34:39.203Z,73.80
2022-08-07T03:37:13.032Z,73.72
2022-08-07T03:40:00.021Z,73.90
2022-08-07T03:42:42.705Z,74.33
2022-08-07T03:45:29.758Z,74.36
2022-08-07T03:48:10.151Z,74.37
2022-08-07T03:50:55.902Z,74.53
2022-08-07T04:00:21.311Z,75.46
2022-08-07T04:03:05.077Z,75.61
2022-08-07T04:05:42.667Z,75.52
2022-08-07T04:08:24.927Z,75.80
2022-08-07T04:12:15.422Z,76.12
2022-08-07T04:14:10.596Z,76.41
2022-08-07T04:16:43.103Z,76.45
2022-08-07T04:19:50.881Z,76.52
2022-08-07T04:22:28.855Z,76.52
2022-08-07T04:25:11.826Z,76.62
2022-08-07T04:28:00.275Z,76.57
2022-08-07T04:30:43.370Z,76.39
2022-08-07T04:33:32.666Z,76.05
2022-08-07T04:36:09.930Z,75.96
2022-08-07T04:38:43.093Z,75.60
2022-08-07T04:41:18.276Z,75.25
2022-08-07T04:44:12.957Z,75.09
2022-08-07T04:47:08.143Z,74.75
2022-08-07T04:49:57.987Z,74.51
2022-08-07T04:52:51.289Z,74.38
2022-08-07T04:58:16.568Z,74.33
2022-08-07T04:58:48.774Z,74.32
2022-08-07T05:01:34.707Z,74.26
2022-08-07T05:04:12.313Z,74.30
2022-08-07T05:06:59.509Z,73.98
2022-08-07T05:09:46.369Z,73.97
2022-08-07T05:12:30.459Z,73.82
2022-08-07T05:15:23.650Z,73.67
2022-08-07T05:18:09.147Z,73.64
2022-08-07T05:20:46.207Z,73.72
2022-08-07T05:23:31.483Z,73.71
2022-08-07T05:26:18.777Z,73.55
2022-08-07T05:29:04.353Z,73.74
2022-08-07T05:31:41.596Z,73.58
2022-08-07T05:34:27.611Z,73.03
2022-08-07T05:37:05.717Z,72.88
2022-08-07T05:40:06.068Z,72.72
2022-08-07T05:42:39.169Z,72.33
2022-08-07T05:45:47.087Z,72.08
2022-08-07T05:48:10.188Z,71.82
2022-08-07T05:50:46.541Z,71.73
2022-08-07T05:54:12.782Z,71.47
2022-08-07T05:56:16.690Z,70.87
2022-08-07T05:58:53.065Z,70.86
2022-08-07T06:01:30.212Z,70.99
2022-08-07T06:04:11.462Z,70.30
2022-08-07T06:06:56.723Z,69.99
2022-08-07T06:10:04.305Z,69.26
2022-08-07T06:12:33.137Z,68.78
2022-08-07T06:15:06.545Z,68.01
2022-08-07T06:17:41.330Z,67.79
2022-08-07T06:20:49.390Z,67.72
2022-08-07T06:23:46.507Z,67.25
2022-08-07T06:26:14.507Z,67.13
2022-08-07T06:28:54.732Z,66.94
2022-08-07T06:31:47.261Z,66.93
2022-08-07T06:34:20.759Z,66.96
2022-08-07T06:36:54.251Z,66.70
2022-08-07T06:40:16.058Z,66.21
2022-08-07T06:42:35.141Z,66.17
2022-08-07T06:45:18.918Z,65.93
2022-08-07T06:47:59.201Z,65.54
2022-08-07T06:50:47.598Z,65.33
2022-08-07T06:54:12.064Z,65.38
2022-08-07T06:56:38.554Z,65.14
2022-08-07T07:00:11.971Z,65.12
2022-08-07T07:02:53.657Z,64.89
2022-08-07T07:06:03.414Z,64.86
2022-08-07T07:08:10.100Z,64.91
2022-08-07T07:10:47.430Z,64.91
2022-08-07T07:13:43.614Z,64.82
2022-08-07T07:16:31.220Z,64.64
2022-08-07T07:19:40.997Z,64.69
2022-08-07T07:22:11.271Z,64.65
2022-08-07T07:24:56.941Z,64.63
2022-08-07T07:27:58.475Z,64.16
2022-08-07T07:30:39.842Z,64.27
2022-08-07T07:34:03.594Z,64.67
2022-08-07T07:36:40.532Z,63.98
2022-08-07T07:39:15.252Z,63.93
2022-08-07T07:42:08.679Z,63.84
2022-08-07T07:44:49.744Z,63.41
2022-08-07T07:47:24.284Z,63.27
2022-08-07T07:50:34.011Z,63.32
2022-08-07T07:52:52.830Z,63.30
2022-08-07T07:55:27.615Z,63.06
2022-08-07T07:58:10.671Z,62.83
2022-08-07T08:00:45.523Z,62.98
2022-08-07T08:04:09.594Z,62.64
2022-08-07T08:06:15.716Z,62.43
2022-08-07T08:08:50.347Z,62.66
2022-08-07T08:11:47.212Z,60.64
2022-08-07T08:14:15.351Z,59.95
2022-08-07T08:16:50.240Z,58.41
2022-08-07T08:20:17.199Z,58.88
2022-08-07T08:22:54.165Z,57.81
2022-08-07T08:25:52.275Z,57.73
2022-08-07T08:28:37.754Z,58.78
2022-08-07T08:31:16.322Z,59.29
2022-08-07T08:33:58.981Z,58.21
2022-08-07T08:36:34.128Z,57.72
2022-08-07T08:39:09.172Z,57.17
2022-08-07T08:41:57.746Z,56.89
2022-08-07T08:44:44.381Z,56.36
2022-08-07T08:47:27.829Z,56.22
2022-08-07T08:50:08.647Z,56.04
2022-08-07T08:52:54.254Z,55.21
2022-08-07T08:55:54.504Z,55.67
2022-08-07T08:58:36.031Z,55.95
2022-08-07T09:01:18.492Z,55.35
2022-08-07T09:03:59.892Z,54.76
2022-08-07T09:06:42.831Z,55.04
2022-08-07T09:09:37.042Z,55.46
2022-08-07T09:12:30.488Z,55.21
2022-08-07T09:16:22.697Z,55.60
2022-08-07T09:18:23.332Z,56.39
2022-08-07T09:21:06.937Z,55.78
2022-08-07T09:24:32.666Z,54.39
2022-08-07T09:26:58.476Z,54.00
2022-08-07T09:30:06.179Z,53.63
2022-08-07T09:32:56.994Z,52.80
2022-08-07T09:36:04.386Z,52.35
2022-08-07T09:38:53.803Z,52.24
2022-08-07T09:41:43.416Z,51.97
2022-08-07T09:44:58.511Z,52.67
2022-08-07T09:48:01.275Z,51.29
2022-08-07T09:50:47.484Z,51.04
2022-08-07T09:53:27.024Z,51.11
2022-08-07T09:56:46.408Z,51.87
2022-08-07T09:59:44.590Z,51.01
2022-08-07T10:02:55.145Z,50.53
2022-08-07T10:06:17.442Z,50.18
2022-08-07T10:09:11.676Z,51.40
2022-08-07T10:12:04.680Z,51.64
2022-08-07T10:15:08.464Z,51.10
2022-08-07T10:18:09.610Z,50.28
2022-08-07T10:20:59.487Z,51.72
2022-08-07T10:24:06.019Z,51.96
2022-08-07T10:26:58.102Z,51.02
2022-08-07T10:29:51.638Z,49.94
2022-08-07T10:32:51.290Z,47.38
2022-08-07T10:35:56.087Z,46.41
2022-08-07T10:38:42.162Z,46.48
2022-08-07T10:41:46.409Z,45.93
2022-08-07T10:44:37.905Z,45.82
2022-08-07T10:47:26.823Z,45.78
2022-08-07T10:50:11.939Z,46.53
2022-08-07T10:52:56.743Z,46.86
2022-08-07T10:55:38.953Z,46.42
2022-08-07T10:58:33.375Z,45.94
2022-08-07T11:01:35.210Z,46.48
2022-08-07T11:04:31.643Z,47.33
2022-08-07T11:07:56.989Z,46.60
2022-08-07T11:10:17.923Z,46.51
2022-08-07T11:13:02.306Z,46.60
2022-08-07T11:15:39.545Z,47.51
2022-08-07T11:18:19.636Z,47.67
2022-08-07T11:21:04.431Z,48.06
2022-08-07T11:23:48.541Z,47.22
2022-08-07T11:26:29.817Z,47.14
2022-08-07T11:29:13.188Z,47.40
2022-08-07T11:32:05.991Z,47.04
2022-08-07T11:34:46.798Z,46.81
2022-08-07T11:37:57.385Z,47.10
2022-08-07T11:40:49.462Z,47.35
2022-08-07T11:43:29.685Z,47.38
2022-08-07T11:46:36.904Z,46.38
2022-08-07T11:50:11.516Z,44.95
2022-08-07T11:52:54.068Z,42.48
2022-08-07T11:56:09.480Z,42.66
2022-08-07T11:58:49.777Z,42.54
2022-08-07T12:01:59.148Z,42.81
2022-08-07T12:05:00.987Z,43.54
2022-08-07T12:07:39.978Z,44.63
2022-08-07T12:10:19.009Z,45.21
2022-08-07T12:13:01.801Z,44.17
2022-08-07T12:16:06.911Z,44.47
2022-08-07T12:18:48.147Z,43.86
2022-08-07T12:21:55.693Z,42.11
2022-08-07T12:24:40.579Z,43.05
2022-08-07T12:27:17.733Z,42.89
2022-08-07T12:30:04.951Z,42.16
2022-08-07T12:32:49.116Z,41.15
2022-08-07T12:35:25.611Z,41.91
2022-08-07T12:38:11.516Z,41.05
2022-08-07T12:40:53.482Z,41.77
2022-08-07T12:44:04.332Z,42.28
2022-08-07T12:46:41.316Z,42.60
2022-08-07T12:49:44.671Z,42.16
2022-08-07T12:52:34.138Z,42.72
2022-08-07T12:55:18.988Z,42.50
2022-08-07T12:58:00.927Z,43.06
2022-08-07T13:00:50.275Z,42.85
2022-08-07T13:03:56.105Z,42.86
2022-08-07T13:07:01.316Z,43.11
2022-08-07T13:10:21.921Z,42.38
2022-08-07T13:13:46.734Z,42.70
2022-08-07T13:16:17.682Z,42.09
2022-08-07T13:18:58.611Z,41.70
2022-08-07T13:21:51.057Z,41.96
2022-08-07T13:24:36.604Z,41.53
2022-08-07T13:27:20.461Z,41.71
2022-08-07T13:29:59.958Z,41.42
2022-08-07T13:32:44.633Z,40.74
2022-08-07T13:35:25.081Z,41.07
2022-08-07T13:38:22.920Z,40.91
2022-08-07T13:41:05.447Z,40.25
2022-08-07T13:43:52.555Z,41.33
2022-08-07T13:46:37.565Z,41.27
2022-08-07T13:50:35.356Z,41.53
2022-08-07T13:52:27.087Z,41.09
2022-08-07T13:55:13.171Z,41.11
2022-08-07T13:58:02.148Z,41.14
2022-08-07T14:00:54.119Z,40.75
2022-08-07T14:04:07.173Z,41.07
2022-08-07T14:06:32.178Z,41.92
2022-08-07T14:09:06.457Z,41.49
2022-08-07T14:11:53.748Z,41.12
2022-08-07T14:14:42.569Z,41.59
2022-08-07T14:18:12.900Z,41.45
2022-08-07T14:20:42.482Z,40.71
2022-08-07T14:23:31.646Z,40.83
2022-08-07T14:26:28.045Z,40.47
2022-08-07T14:30:04.902Z,40.63
2022-08-07T14:32:04.435Z,40.55
2022-08-07T14:34:46.102Z,40.22
2022-08-07T14:37:23.754Z,40.68
2022-08-07T14:40:27.088Z,39.97
2022-08-07T14:43:59.336Z,39.19
2022-08-07T14:45:57.658Z,39.24
2022-08-07T14:48:33.283Z,39.09
2022-08-07T14:51:15.733Z,39.63
2022-08-07T14:54:30.382Z,40.05
2022-08-07T14:56:48.996Z,39.60
2022-08-07T15:00:03.085Z,39.87
2022-08-07T15:02:34.257Z,39.55
2022-08-07T15:08:05.020Z,39.86
2022-08-07T15:10:59.133Z,40.16
2022-08-07T15:13:39.030Z,40.51
2022-08-07T15:16:16.963Z,39.97
2022-08-07T15:18:56.831Z,40.28
2022-08-07T15:21:43.975Z,40.14
2022-08-07T15:27:32.819Z,39.88
2022-08-07T15:30:16.102Z,40.53
2022-08-07T15:33:03.908Z,41.12
2022-08-07T15:36:00.760Z,41.41
2022-08-07T15:38:32.947Z,41.16
2022-08-07T15:44:23.784Z,40.41
2022-08-07T15:47:03.443Z,40.80
2022-08-07T15:50:04.774Z,40.09
2022-08-07T15:52:39.081Z,40.62
2022-08-07T15:55:15.618Z,39.70
2022-08-07T15:58:00.147Z,40.64
2022-08-07T16:00:37.956Z,40.15
2022-08-07T16:03:46.393Z,40.74
2022-08-07T16:06:16.329Z,40.98
2022-08-07T16:08:49.688Z,40.92
2022-08-07T16:11:40.203Z,40.01
2022-08-07T16:14:19.135Z,40.25
2022-08-07T16:17:15.156Z,40.99
2022-08-07T16:20:09.486Z,40.25
2022-08-07T16:23:13.521Z,39.51
2022-08-07T16:26:30.786Z,38.96
2022-08-07T16:30:10.145Z,38.89
2022-08-07T16:32:32.998Z,38.71
2022-08-07T16:35:58.766Z,38.03
2022-08-07T16:38:57.427Z,38.29
2022-08-07T16:41:54.013Z,38.76
2022-08-07T16:48:07.860Z,40.01
2022-08-07T16:51:20.667Z,39.33
2022-08-07T16:54:32.800Z,39.37
2022-08-07T16:58:01.007Z,39.36
2022-08-07T17:00:30.029Z,39.48
2022-08-07T17:03:17.826Z,40.45
2022-08-07T17:06:28.683Z,40.95
2022-08-07T17:09:14.336Z,40.52
2022-08-07T17:12:34.303Z,40.27
2022-08-07T17:15:13.681Z,39.72
2022-08-07T17:17:58.934Z,40.06
2022-08-07T17:20:37.509Z,40.27
2022-08-07T17:23:32.638Z,40.11
2022-08-07T17:26:22.848Z,40.29
2022-08-07T17:30:12.838Z,40.96
2022-08-07T17:32:30.432Z,40.86
2022-08-07T17:35:50.373Z,41.60
2022-08-07T17:38:32.140Z,41.30
2022-08-07T17:42:02.225Z,41.49
2022-08-07T17:44:42.658Z,41.57
2022-08-07T17:47:16.769Z,41.86
2022-08-07T17:50:14.443Z,42.01
2022-08-07T17:52:59.837Z,42.20
2022-08-07T17:56:00.403Z,42.25
2022-08-07T17:58:37.878Z,43.01
2022-08-07T18:01:17.931Z,43.11
2022-08-07T18:04:17.612Z,43.60
2022-08-07T18:07:21.005Z,43.34
2022-08-07T18:10:07.667Z,43.51
2022-08-07T18:13:09.894Z,43.50
2022-08-07T18:15:56.605Z,43.64
2022-08-07T18:21:01.579Z,44.13
2022-08-07T18:21:51.626Z,44.25
2022-08-07T18:24:34.484Z,44.24
2022-08-07T18:27:18.558Z,44.83
2022-08-07T18:30:05.929Z,44.71
2022-08-07T18:33:12.005Z,44.88
2022-08-07T18:36:01.694Z,44.95
2022-08-07T18:38:57.756Z,45.15
2022-08-07T18:41:46.513Z,45.62
2022-08-07T18:48:01.589Z,45.97
2022-08-07T18:51:00.791Z,46.05
2022-08-07T18:53:48.550Z,46.21
2022-08-07T18:56:37.703Z,46.32
2022-08-07T18:59:47.630Z,46.73
2022-08-07T19:02:39.531Z,46.88
2022-08-07T19:06:02.865Z,47.00
2022-08-07T19:08:29.000Z,47.32
2022-08-07T19:11:35.321Z,47.58
2022-08-07T19:14:17.085Z,48.00
2022-08-07T19:17:06.942Z,48.00
2022-08-07T19:19:57.963Z,48.33
2022-08-07T19:22:38.044Z,48.43
2022-08-07T19:26:22.608Z,48.76
2022-08-07T19:28:29.554Z,49.19
2022-08-07T19:31:41.924Z,49.15
2022-08-07T19:34:08.808Z,49.32
2022-08-07T19:36:44.331Z,49.60
2022-08-07T19:39:56.100Z,49.54
2022-08-07T19:42:26.247Z,49.91
2022-08-07T19:45:08.452Z,50.34
2022-08-07T19:47:44.537Z,51.16
2022-08-07T19:50:44.117Z,51.23
2022-08-07T19:54:32.174Z,51.85
2022-08-07T19:58:00.721Z,52.35
2022-08-07T19:59:13.603Z,52.60
2022-08-07T20:01:57.731Z,52.91
2022-08-07T20:04:37.567Z,53.26
2022-08-07T20:07:12.120Z,53.88
2022-08-07T20:10:35.848Z,54.40
2022-08-07T20:12:52.482Z,55.00
2022-08-07T20:15:32.761Z,55.74
2022-08-07T20:18:18.176Z,55.83
2022-08-07T20:20:56.497Z,56.48
2022-08-07T20:23:40.790Z,56.24
2022-08-07T20:26:29.578Z,56.51
2022-08-07T20:29:10.759Z,56.48
2022-08-07T20:31:56.415Z,56.47
2022-08-07T20:34:49.656Z,57.13
2022-08-07T20:37:33.664Z,57.49
2022-08-07T20:40:32.165Z,58.36
2022-08-07T20:43:03.696Z,58.04
2022-08-07T20:46:26.719Z,58.62
2022-08-07T20:48:38.241Z,58.42
2022-08-07T20:51:14.409Z,58.45
2022-08-07T20:54:02.992Z,58.61
2022-08-07T20:56:46.285Z,58.84
2022-08-07T21:00:05.065Z,59.39
2022-08-07T21:02:33.367Z,59.61
2022-08-07T21:05:10.402Z,59.39
2022-08-07T21:07:55.176Z,59.16
2022-08-07T21:10:33.515Z,59.25
2022-08-07T21:13:15.353Z,59.18
2022-08-07T21:16:00.005Z,59.00
2022-08-07T21:18:41.063Z,59.02
2022-08-07T21:21:16.242Z,59.39
2022-08-07T21:23:57.611Z,59.11
2022-08-07T21:26:42.920Z,58.99
2022-08-07T21:29:20.664Z,58.78
2022-08-07T21:32:47.903Z,58.81
2022-08-07T21:34:58.998Z,59.07
2022-08-07T21:37:58.095Z,59.42
2022-08-07T21:40:38.885Z,59.77
2022-08-07T21:43:15.158Z,59.87
2022-08-07T21:46:10.079Z,59.90
2022-08-07T21:49:00.657Z,59.85
2022-08-07T21:51:51.800Z,59.93
2022-08-07T21:54:39.126Z,60.07
2022-08-07T21:57:44.776Z,60.24
2022-08-07T22:00:22.664Z,60.60
2022-08-07T22:03:05.623Z,60.70
2022-08-07T22:05:50.848Z,60.76
2022-08-07T22:08:24.617Z,60.96
2022-08-07T22:11:05.711Z,61.41
2022-08-07T22:13:52.419Z,61.55
2022-08-07T22:16:42.550Z,61.95
2022-08-07T22:19:30.451Z,61.97
2022-08-07T22:22:18.141Z,62.22
2022-08-07T22:25:08.537Z,62.57
2022-08-07T22:28:07.894Z,62.45
2022-08-07T22:30:53.384Z,62.68
2022-08-07T22:33:53.116Z,63.06
2022-08-07T22:36:32.627Z,63.29
2022-08-07T22:39:14.138Z,63.55
2022-08-07T22:42:04.023Z,63.65
2022-08-07T22:44:58.862Z,63.78
2022-08-07T22:48:02.589Z,64.19
2022-08-07T22:50:47.141Z,64.25
2022-08-07T22:54:06.641Z,64.44
2022-08-07T22:56:45.217Z,64.27
2022-08-07T22:59:49.760Z,64.72
2022-08-07T23:02:35.603Z,65.02
2022-08-07T23:06:08.954Z,65.09
2022-08-07T23:08:46.285Z,65.27
2022-08-07T23:11:41.543Z,65.63
2022-08-07T23:14:32.357Z,65.75
2022-08-07T23:17:24.676Z,65.49
2022-08-07T23:20:51.892Z,65.87
2022-08-07T23:24:04.384Z,65.84
2022-08-07T23:26:31.843Z,66.70
2022-08-07T23:30:39.171Z,67.24
2022-08-07T23:34:33.889Z,66.79
2022-08-07T23:35:56.482Z,67.27
2022-08-07T23:38:47.277Z,67.29
2022-08-07T23:41:47.500Z,67.27
2022-08-07T23:44:53.611Z,67.64
2022-08-07T23:47:46.563Z,67.74
2022-08-07T23:50:43.488Z,68.18
2022-08-07T23:53:49.588Z,68.20
2022-08-07T23:56:34.922Z,68.06
